Time;durP1;ratioP1;P1;durP2;ratioP2;P2;SDS_P1;SDS_P2;PMS_P1;PMS_P2;Temp;Humidity;BMP_temperature;BMP_pressure;BME280_temperature;BME280_humidity;BME280_pressure;Samples;Min_cycle;Max_cycle;Signal;HPM_P1;HPM_P2
2024/02/28 00:00:10;;;;;;;28.60;15.80;;;;;;;;;;4984467;28;20030;-79
2024/02/28 00:02:36;;;;;;;31.20;16.63;;;;;;;;;;4982237;28;20022;-79
2024/02/28 00:05:02;;;;;;;32.25;16.33;;;;;;;;;;5000613;28;20503;-78
2024/02/28 00:07:27;;;;;;;30.20;16.42;;;;;;;;;;4996784;28;20153;-80
2024/02/28 00:09:57;;;;;;;28.08;15.85;;;;;;;;;;4986159;28;20486;-80
2024/02/28 00:12:25;;;;;;;30.05;16.38;;;;;;;;;;5003276;28;20057;-78
2024/02/28 00:14:50;;;;;;;31.95;17.33;;;;;;;;;;4985150;28;20041;-78
2024/02/28 00:17:15;;;;;;;30.80;15.88;;;;;;;;;;5000212;28;20037;-78
2024/02/28 00:19:42;;;;;;;30.27;17.20;;;;;;;;;;5001779;28;20037;-78
2024/02/28 00:22:08;;;;;;;31.85;17.17;;;;;;;;;;5000295;28;20080;-78
2024/02/28 00:24:33;;;;;;;30.15;15.93;;;;;;;;;;5000332;28;20033;-78
2024/02/28 00:26:58;;;;;;;28.33;17.00;;;;;;;;;;5000897;28;20030;-77
2024/02/28 00:29:24;;;;;;;28.98;17.08;;;;;;;;;;4984094;28;20026;-78
2024/02/28 00:31:49;;;;;;;31.90;16.77;;;;;;;;;;5002306;28;20409;-78
2024/02/28 00:34:15;;;;;;;30.90;16.40;;;;;;;;;;5001702;28;20096;-78
2024/02/28 00:36:40;;;;;;;29.25;15.73;;;;;;;;;;4984707;28;20117;-78
2024/02/28 00:39:06;;;;;;;29.90;15.75;;;;;;;;;;4999994;28;20034;-77
2024/02/28 00:41:31;;;;;;;25.42;15.05;;;;;;;;;;4986888;28;20029;-78
2024/02/28 00:43:56;;;;;;;28.48;15.88;;;;;;;;;;5000800;28;20509;-77
2024/02/28 00:46:22;;;;;;;29.13;16.55;;;;;;;;;;4981702;28;20038;-78
2024/02/28 00:48:47;;;;;;;30.58;16.05;;;;;;;;;;4984619;28;20483;-78
2024/02/28 00:51:12;;;;;;;28.85;15.05;;;;;;;;;;4996976;28;20029;-78
2024/02/28 00:53:39;;;;;;;27.27;15.30;;;;;;;;;;4996821;28;20042;-78
2024/02/28 00:56:05;;;;;;;28.75;16.40;;;;;;;;;;4982925;28;20034;-78
2024/02/28 00:58:30;;;;;;;32.45;16.98;;;;;;;;;;4997100;28;20451;-78
2024/02/28 01:00:56;;;;;;;28.42;15.80;;;;;;;;;;4999687;28;20030;-78
2024/02/28 01:03:21;;;;;;;28.20;15.65;;;;;;;;;;4998796;28;20030;-79
2024/02/28 01:05:49;;;;;;;29.13;15.88;;;;;;;;;;4982720;28;20030;-75
2024/02/28 01:08:17;;;;;;;29.83;15.48;;;;;;;;;;5001759;28;20021;-76
2024/02/28 01:10:42;;;;;;;28.83;16.05;;;;;;;;;;4987390;28;20025;-76
2024/02/28 01:13:07;;;;;;;28.58;16.35;;;;;;;;;;5002615;28;20399;-78
2024/02/28 01:15:33;;;;;;;26.63;15.45;;;;;;;;;;5002265;28;20443;-78
2024/02/28 01:17:58;;;;;;;26.40;15.40;;;;;;;;;;5004836;28;20037;-78
2024/02/28 01:20:23;;;;;;;28.08;15.55;;;;;;;;;;5005970;28;20045;-78
2024/02/28 01:22:49;;;;;;;25.00;14.27;;;;;;;;;;5002453;28;20030;-80
2024/02/28 01:25:14;;;;;;;28.05;15.65;;;;;;;;;;5001823;28;20089;-79
2024/02/28 01:27:39;;;;;;;29.15;16.25;;;;;;;;;;5002607;28;20522;-80
2024/02/28 01:30:06;;;;;;;26.10;15.68;;;;;;;;;;5001800;28;20026;-80
2024/02/28 01:32:31;;;;;;;26.15;15.10;;;;;;;;;;4988774;28;21586;-79
2024/02/28 01:34:57;;;;;;;28.65;16.15;;;;;;;;;;5001228;28;20026;-79
2024/02/28 01:37:22;;;;;;;26.58;15.13;;;;;;;;;;5000923;28;20496;-79
2024/02/28 01:39:47;;;;;;;24.08;14.13;;;;;;;;;;4988149;28;20435;-79
2024/02/28 01:42:14;;;;;;;27.10;14.55;;;;;;;;;;5003931;28;20476;-78
2024/02/28 01:44:46;;;;;;;23.98;13.88;;;;;;;;;;5002352;28;20519;-80
2024/02/28 01:47:11;;;;;;;23.58;14.25;;;;;;;;;;4986565;28;20350;-79
2024/02/28 01:49:38;;;;;;;26.05;14.73;;;;;;;;;;5005542;28;20017;-79
2024/02/28 01:52:04;;;;;;;24.92;14.73;;;;;;;;;;4981956;28;20026;-79
2024/02/28 01:54:31;;;;;;;24.83;14.23;;;;;;;;;;5004225;28;20037;-79
2024/02/28 01:56:57;;;;;;;22.67;13.27;;;;;;;;;;4985528;28;20034;-79
2024/02/28 01:59:25;;;;;;;22.45;13.30;;;;;;;;;;5000934;28;20488;-80
2024/02/28 03:36:04;;;;;;;18.17;10.85;;;;;;;;;;1824257;23;20054;-81
2024/02/28 03:38:29;;;;;;;18.05;11.35;;;;;;;;;;5012745;28;20034;-81
2024/02/28 03:40:54;;;;;;;18.00;11.02;;;;;;;;;;5009998;28;20025;-81
2024/02/28 03:43:20;;;;;;;18.48;11.63;;;;;;;;;;5011899;28;20476;-81
2024/02/28 03:45:45;;;;;;;16.63;10.75;;;;;;;;;;4993429;28;20491;-81
2024/02/28 03:48:10;;;;;;;19.10;11.73;;;;;;;;;;5012492;28;20060;-81
2024/02/28 03:50:36;;;;;;;17.13;11.80;;;;;;;;;;5009885;28;20022;-81
2024/02/28 03:53:02;;;;;;;16.05;11.23;;;;;;;;;;5002002;28;20029;-81
2024/02/28 03:55:27;;;;;;;20.45;11.20;;;;;;;;;;5001392;28;20028;-81
2024/02/28 03:57:53;;;;;;;18.38;11.70;;;;;;;;;;5002498;28;20057;-81
2024/02/28 04:00:18;;;;;;;17.02;11.57;;;;;;;;;;5000810;28;20032;-81
2024/02/28 04:02:44;;;;;;;19.25;11.73;;;;;;;;;;5000676;28;20156;-81
2024/02/28 04:05:09;;;;;;;19.00;12.02;;;;;;;;;;5002053;28;20044;-81
2024/02/28 04:07:35;;;;;;;17.88;11.63;;;;;;;;;;5001407;28;20037;-81
2024/02/28 04:10:00;;;;;;;17.88;11.73;;;;;;;;;;5002312;28;20117;-81
2024/02/28 04:12:25;;;;;;;17.05;11.40;;;;;;;;;;5002032;28;20026;-81
2024/02/28 04:14:52;;;;;;;17.08;11.27;;;;;;;;;;4984919;28;20045;-81
2024/02/28 04:17:17;;;;;;;19.40;12.15;;;;;;;;;;5002408;28;20041;-81
2024/02/28 04:19:43;;;;;;;16.10;11.43;;;;;;;;;;5002545;28;20117;-81
2024/02/28 04:22:08;;;;;;;16.50;12.32;;;;;;;;;;4999258;28;20043;-81
2024/02/28 04:24:34;;;;;;;18.08;12.05;;;;;;;;;;4999985;28;22231;-81
2024/02/28 04:26:59;;;;;;;15.82;11.68;;;;;;;;;;4983983;28;20112;-81
2024/02/28 04:29:25;;;;;;;17.38;11.60;;;;;;;;;;5003405;28;20065;-81
2024/02/28 04:31:51;;;;;;;18.55;12.20;;;;;;;;;;4984676;28;20038;-80
2024/02/28 04:34:16;;;;;;;18.30;12.23;;;;;;;;;;5002137;28;20025;-81
2024/02/28 04:36:41;;;;;;;17.80;12.40;;;;;;;;;;5002291;28;20439;-81
2024/02/28 04:39:07;;;;;;;19.08;12.45;;;;;;;;;;5000386;28;20034;-80
2024/02/28 04:41:33;;;;;;;19.13;12.55;;;;;;;;;;5001946;28;20025;-81
2024/02/28 04:43:59;;;;;;;17.95;12.73;;;;;;;;;;5005010;28;20026;-81
2024/02/28 04:46:24;;;;;;;18.23;12.27;;;;;;;;;;5001622;28;20037;-81
2024/02/28 04:48:50;;;;;;;16.75;12.80;;;;;;;;;;5003015;28;20376;-81
2024/02/28 04:51:17;;;;;;;17.48;12.65;;;;;;;;;;5005297;28;20484;-81
2024/02/28 04:53:43;;;;;;;17.92;12.55;;;;;;;;;;5004792;28;20025;-81
2024/02/28 04:56:08;;;;;;;19.50;12.93;;;;;;;;;;5006548;28;20042;-81
2024/02/28 04:58:35;;;;;;;17.98;12.30;;;;;;;;;;5002635;28;20025;-81
2024/02/28 05:01:01;;;;;;;20.20;12.52;;;;;;;;;;5003100;28;20030;-81
2024/02/28 05:03:26;;;;;;;17.05;12.38;;;;;;;;;;5002964;28;20079;-80
2024/02/28 05:05:52;;;;;;;17.77;12.80;;;;;;;;;;5004626;28;20147;-81
2024/02/28 05:08:20;;;;;;;18.67;13.02;;;;;;;;;;5002503;28;20022;-81
2024/02/28 05:10:45;;;;;;;21.10;13.02;;;;;;;;;;5005584;28;20029;-81
2024/02/28 05:13:11;;;;;;;17.80;13.15;;;;;;;;;;5000787;28;20034;-81
2024/02/28 05:15:36;;;;;;;20.50;13.07;;;;;;;;;;5005095;28;20030;-81
2024/02/28 05:18:01;;;;;;;16.48;11.55;;;;;;;;;;5004668;28;20395;-81
2024/02/28 05:20:27;;;;;;;18.90;12.98;;;;;;;;;;5005330;28;20052;-81
2024/02/28 05:22:52;;;;;;;19.05;13.20;;;;;;;;;;5004227;28;20029;-80
2024/02/28 05:25:18;;;;;;;18.98;12.82;;;;;;;;;;5004610;28;20064;-80
2024/02/28 05:27:43;;;;;;;19.38;13.48;;;;;;;;;;4986391;28;20046;-81
2024/02/28 05:30:09;;;;;;;19.38;13.25;;;;;;;;;;5005241;28;20025;-82
2024/02/28 05:32:35;;;;;;;21.30;13.90;;;;;;;;;;5005591;28;20022;-82
2024/02/28 05:35:01;;;;;;;19.63;14.15;;;;;;;;;;5006151;28;20084;-89
2024/02/28 05:37:26;;;;;;;18.20;13.10;;;;;;;;;;4986317;28;20025;-92
2024/02/28 05:39:51;;;;;;;19.30;13.00;;;;;;;;;;4991388;28;20022;-89
2024/02/28 05:42:21;;;;;;;20.13;13.38;;;;;;;;;;5005366;28;20631;-91
2024/02/28 05:44:48;;;;;;;19.60;13.93;;;;;;;;;;5005837;28;20029;-91
2024/02/28 05:47:13;;;;;;;20.00;13.30;;;;;;;;;;4985603;28;20464;-91
2024/02/28 05:49:39;;;;;;;22.00;14.35;;;;;;;;;;4988973;28;20029;-91
2024/02/28 05:52:05;;;;;;;19.02;13.70;;;;;;;;;;4989625;28;20041;-90
2024/02/28 05:54:30;;;;;;;20.88;13.65;;;;;;;;;;4998345;28;20921;-90
2024/02/28 05:56:56;;;;;;;20.50;13.77;;;;;;;;;;5004295;28;20025;-90
2024/02/28 05:59:21;;;;;;;20.52;13.77;;;;;;;;;;5001183;28;20030;-91
2024/02/28 06:01:47;;;;;;;19.08;13.27;;;;;;;;;;4989545;28;20368;-92
2024/02/28 06:04:12;;;;;;;24.60;14.35;;;;;;;;;;4989433;28;20411;-92
2024/02/28 06:06:38;;;;;;;21.85;13.52;;;;;;;;;;4993536;28;20756;-92
2024/02/28 06:09:04;;;;;;;21.27;14.18;;;;;;;;;;4991591;28;20099;-91
2024/02/28 06:11:29;;;;;;;20.08;14.13;;;;;;;;;;4990194;28;20488;-92
2024/02/28 06:13:55;;;;;;;24.35;14.45;;;;;;;;;;5007073;28;20061;-91
2024/02/28 06:16:20;;;;;;;20.02;13.63;;;;;;;;;;4990394;28;20018;-90
2024/02/28 06:18:46;;;;;;;20.15;13.77;;;;;;;;;;4990251;28;20398;-92
2024/02/28 06:21:13;;;;;;;20.02;14.05;;;;;;;;;;4991445;28;20069;-91
2024/02/28 06:23:39;;;;;;;21.88;13.98;;;;;;;;;;4988393;28;20300;-91
2024/02/28 06:26:04;;;;;;;22.25;14.90;;;;;;;;;;4987829;28;20472;-92
2024/02/28 06:28:30;;;;;;;24.05;14.95;;;;;;;;;;4989597;28;20033;-92
2024/02/28 06:30:55;;;;;;;21.80;13.73;;;;;;;;;;5003857;28;20021;-92
2024/02/28 06:33:20;;;;;;;24.52;14.68;;;;;;;;;;4995660;28;20030;-91
2024/02/28 06:35:46;;;;;;;22.38;14.23;;;;;;;;;;4988450;28;20065;-92
2024/02/28 06:38:11;;;;;;;22.77;14.57;;;;;;;;;;4994475;28;20034;-91
2024/02/28 06:40:37;;;;;;;18.67;12.75;;;;;;;;;;4997646;28;20026;-93
2024/02/28 06:43:03;;;;;;;21.88;14.25;;;;;;;;;;4994133;28;20033;-91
2024/02/28 06:45:30;;;;;;;20.23;13.95;;;;;;;;;;4994585;28;20129;-84
2024/02/28 06:47:55;;;;;;;23.65;14.07;;;;;;;;;;4996661;28;20117;-84
2024/02/28 06:50:21;;;;;;;21.52;14.13;;;;;;;;;;5001791;28;20025;-85
2024/02/28 06:52:46;;;;;;;24.65;14.60;;;;;;;;;;5012163;28;20440;-84
2024/02/28 06:55:14;;;;;;;21.13;14.10;;;;;;;;;;5003668;28;20025;-84
2024/02/28 06:57:41;;;;;;;20.73;13.38;;;;;;;;;;5009470;28;20044;-84
2024/02/28 07:00:08;;;;;;;23.25;13.80;;;;;;;;;;5008910;28;20033;-84
2024/02/28 07:02:37;;;;;;;20.50;14.07;;;;;;;;;;4998476;28;20038;-84
2024/02/28 07:05:07;;;;;;;20.48;13.35;;;;;;;;;;4994503;28;20115;-84
2024/02/28 07:07:33;;;;;;;21.35;14.75;;;;;;;;;;4991360;28;20052;-84
2024/02/28 07:09:59;;;;;;;28.35;14.70;;;;;;;;;;4987861;28;20014;-84
2024/02/28 07:12:25;;;;;;;26.33;14.05;;;;;;;;;;4996901;28;20043;-84
2024/02/28 07:14:51;;;;;;;22.48;14.50;;;;;;;;;;5003534;28;20112;-84
2024/02/28 07:17:16;;;;;;;21.92;14.65;;;;;;;;;;4998485;28;20033;-84
2024/02/28 07:19:42;;;;;;;22.75;14.18;;;;;;;;;;5000004;28;20069;-84
2024/02/28 07:22:07;;;;;;;21.70;14.40;;;;;;;;;;4985204;28;20396;-83
2024/02/28 07:24:33;;;;;;;21.42;14.25;;;;;;;;;;4985075;28;20041;-84
2024/02/28 07:26:58;;;;;;;23.58;15.68;;;;;;;;;;5001726;28;20387;-84
2024/02/28 07:29:23;;;;;;;22.13;14.73;;;;;;;;;;5002072;28;20052;-83
2024/02/28 07:31:52;;;;;;;25.27;14.18;;;;;;;;;;5004097;28;20029;-84
2024/02/28 07:34:17;;;;;;;21.13;13.90;;;;;;;;;;5003010;28;20030;-83
2024/02/28 07:36:43;;;;;;;23.80;13.68;;;;;;;;;;5002322;28;20392;-84
2024/02/28 07:39:12;;;;;;;24.85;14.13;;;;;;;;;;5004512;28;20080;-83
2024/02/28 07:41:38;;;;;;;23.40;14.85;;;;;;;;;;4984009;28;20037;-83
2024/02/28 07:44:04;;;;;;;23.20;14.63;;;;;;;;;;4983785;28;20030;-84
2024/02/28 07:46:29;;;;;;;23.40;14.35;;;;;;;;;;4984762;28;20040;-84
2024/02/28 07:48:55;;;;;;;23.75;14.90;;;;;;;;;;5000949;28;20555;-84
2024/02/28 07:51:20;;;;;;;21.67;14.65;;;;;;;;;;5001691;28;20040;-84
2024/02/28 07:53:46;;;;;;;23.65;14.40;;;;;;;;;;4983029;28;20414;-84
2024/02/28 07:56:19;;;;;;;23.90;15.57;;;;;;;;;;5001398;28;20026;-84
2024/02/28 07:58:45;;;;;;;25.55;14.73;;;;;;;;;;4984831;28;20038;-84
2024/02/28 08:01:11;;;;;;;21.45;13.80;;;;;;;;;;5003020;28;20029;-84
2024/02/28 08:03:36;;;;;;;22.83;14.27;;;;;;;;;;4983617;28;20129;-84
2024/02/28 08:06:02;;;;;;;24.02;14.75;;;;;;;;;;5000974;28;20061;-84
2024/02/28 08:08:27;;;;;;;25.70;15.48;;;;;;;;;;4983841;28;20075;-84
2024/02/28 08:10:52;;;;;;;24.95;14.65;;;;;;;;;;4999130;28;20929;-84
2024/02/28 08:13:19;;;;;;;23.00;15.00;;;;;;;;;;5002165;28;20037;-84
2024/02/28 08:15:44;;;;;;;27.30;15.18;;;;;;;;;;5003120;28;20047;-84
2024/02/28 08:18:11;;;;;;;22.60;15.13;;;;;;;;;;5003918;28;20479;-83
2024/02/28 08:20:37;;;;;;;25.90;15.18;;;;;;;;;;4983060;28;20030;-84
2024/02/28 08:23:03;;;;;;;24.58;15.48;;;;;;;;;;5000880;28;20045;-84
2024/02/28 08:25:29;;;;;;;26.85;15.13;;;;;;;;;;4984581;28;20120;-84
2024/02/28 08:27:54;;;;;;;27.45;15.70;;;;;;;;;;5002125;28;20121;-84
2024/02/28 08:30:19;;;;;;;28.10;15.73;;;;;;;;;;5000738;28;20038;-84
2024/02/28 08:32:45;;;;;;;25.05;14.60;;;;;;;;;;4985062;28;20034;-84
2024/02/28 08:35:10;;;;;;;27.17;15.55;;;;;;;;;;5000874;28;20369;-84
2024/02/28 08:37:38;;;;;;;26.85;16.20;;;;;;;;;;5004527;28;20380;-84
2024/02/28 08:40:05;;;;;;;26.50;15.43;;;;;;;;;;4984567;28;20152;-84
2024/02/28 08:42:30;;;;;;;27.85;15.77;;;;;;;;;;5001354;28;20495;-84
2024/02/28 08:44:56;;;;;;;25.83;15.15;;;;;;;;;;4989234;28;20072;-84
2024/02/28 08:47:25;;;;;;;27.13;15.48;;;;;;;;;;5001472;28;20475;-83
2024/02/28 08:49:51;;;;;;;27.63;16.17;;;;;;;;;;5001166;28;20482;-84
2024/02/28 08:52:17;;;;;;;25.77;15.85;;;;;;;;;;5005804;28;20076;-84
2024/02/28 08:54:42;;;;;;;28.10;16.80;;;;;;;;;;5001902;28;20030;-84
2024/02/28 08:57:08;;;;;;;27.08;15.88;;;;;;;;;;4998900;28;20044;-84
2024/02/28 08:59:33;;;;;;;27.33;15.82;;;;;;;;;;5000925;28;20113;-84
2024/02/28 09:01:59;;;;;;;28.45;16.33;;;;;;;;;;4984585;28;20447;-84
2024/02/28 09:04:24;;;;;;;27.25;16.27;;;;;;;;;;5003537;28;20155;-91
2024/02/28 09:06:50;;;;;;;26.10;16.17;;;;;;;;;;4989369;28;20458;-91
2024/02/28 09:09:16;;;;;;;31.10;15.70;;;;;;;;;;4989805;28;20034;-92
2024/02/28 09:11:42;;;;;;;26.08;14.98;;;;;;;;;;4987939;28;20022;-91
2024/02/28 09:14:07;;;;;;;29.20;16.83;;;;;;;;;;4988159;28;20034;-92
2024/02/28 09:16:32;;;;;;;26.80;16.42;;;;;;;;;;4987545;28;20392;-92
2024/02/28 09:18:58;;;;;;;29.77;16.00;;;;;;;;;;4992101;28;20018;-93
2024/02/28 09:21:23;;;;;;;27.33;16.25;;;;;;;;;;4987924;28;20026;-92
2024/02/28 09:23:49;;;;;;;26.38;15.70;;;;;;;;;;5004931;28;20085;-92
2024/02/28 09:26:14;;;;;;;31.58;16.33;;;;;;;;;;5003582;28;20380;-91
2024/02/28 09:28:40;;;;;;;32.65;16.35;;;;;;;;;;4991337;28;20026;-93
2024/02/28 09:31:05;;;;;;;23.80;14.88;;;;;;;;;;4992760;28;20183;-91
2024/02/28 09:33:30;;;;;;;29.15;15.73;;;;;;;;;;4991961;28;20454;-91
2024/02/28 09:35:56;;;;;;;26.52;14.98;;;;;;;;;;5008403;28;20038;-92
2024/02/28 09:38:21;;;;;;;25.55;14.43;;;;;;;;;;5006030;28;20443;-91
2024/02/28 09:40:50;;;;;;;30.38;16.20;;;;;;;;;;5008174;28;20033;-90
2024/02/28 09:43:28;;;;;;;26.52;14.95;;;;;;;;;;5002968;28;20030;-90
2024/02/28 09:45:59;;;;;;;24.27;14.43;;;;;;;;;;5016440;28;20030;-90
2024/02/28 09:48:28;;;;;;;23.05;14.32;;;;;;;;;;4999546;28;20123;-92
2024/02/28 09:50:55;;;;;;;27.45;14.48;;;;;;;;;;5001414;28;20029;-92
2024/02/28 09:53:21;;;;;;;25.63;14.55;;;;;;;;;;5008114;28;20034;-89
2024/02/28 09:55:48;;;;;;;22.27;14.48;;;;;;;;;;5000807;28;20057;-92
2024/02/28 09:58:14;;;;;;;27.17;14.73;;;;;;;;;;5004333;28;20029;-91
2024/02/28 10:00:43;;;;;;;25.00;14.82;;;;;;;;;;5011514;28;20026;-91
2024/02/28 10:03:13;;;;;;;25.73;14.90;;;;;;;;;;5001460;28;20118;-92
2024/02/28 10:05:39;;;;;;;26.83;15.38;;;;;;;;;;5001973;28;20022;-91
2024/02/28 10:08:05;;;;;;;27.50;14.88;;;;;;;;;;4999874;28;20084;-91
2024/02/28 10:10:31;;;;;;;28.13;15.43;;;;;;;;;;5002858;28;20022;-91
2024/02/28 10:12:58;;;;;;;27.98;16.40;;;;;;;;;;5003752;28;20037;-90
2024/02/28 10:15:26;;;;;;;25.42;15.55;;;;;;;;;;4998038;28;20022;-92
2024/02/28 10:17:51;;;;;;;26.50;15.77;;;;;;;;;;5000672;28;20029;-93
2024/02/28 10:20:17;;;;;;;24.98;15.23;;;;;;;;;;5002442;28;20087;-92
2024/02/28 10:22:42;;;;;;;28.20;15.55;;;;;;;;;;5005945;28;20067;-91
2024/02/28 10:25:08;;;;;;;29.33;17.20;;;;;;;;;;5000953;28;20476;-90
2024/02/28 10:27:34;;;;;;;28.17;16.73;;;;;;;;;;5007314;28;20029;-92
2024/02/28 10:30:01;;;;;;;29.30;15.02;;;;;;;;;;5018488;28;20026;-92
2024/02/28 10:32:27;;;;;;;32.15;16.60;;;;;;;;;;5007152;28;20049;-93
2024/02/28 10:34:53;;;;;;;28.60;17.00;;;;;;;;;;4999705;28;20030;-91
2024/02/28 10:37:20;;;;;;;31.80;16.63;;;;;;;;;;5011667;28;20034;-91
2024/02/28 10:39:47;;;;;;;34.85;17.42;;;;;;;;;;4994619;28;20057;-91
2024/02/28 10:42:14;;;;;;;31.50;16.33;;;;;;;;;;5004699;28;20156;-90
2024/02/28 10:44:42;;;;;;;30.55;16.13;;;;;;;;;;5008386;28;20030;-93
2024/02/28 10:47:08;;;;;;;30.70;16.50;;;;;;;;;;4998391;28;20026;-92
2024/02/28 10:49:33;;;;;;;35.97;17.52;;;;;;;;;;4996676;28;20584;-91
2024/02/28 10:52:00;;;;;;;31.83;16.35;;;;;;;;;;5006740;28;20552;-92
2024/02/28 10:54:29;;;;;;;33.70;16.77;;;;;;;;;;5015527;28;20037;-91
2024/02/28 10:56:55;;;;;;;33.75;17.45;;;;;;;;;;5000189;28;20029;-91
2024/02/28 10:59:23;;;;;;;34.72;16.85;;;;;;;;;;5007936;28;20022;-91
2024/02/28 11:01:48;;;;;;;33.80;17.33;;;;;;;;;;5015973;28;20022;-92
2024/02/28 11:04:16;;;;;;;29.38;16.70;;;;;;;;;;5002714;28;20033;-92
2024/02/28 11:06:55;;;;;;;36.92;16.92;;;;;;;;;;5015960;28;20018;-90
2024/02/28 11:09:25;;;;;;;32.95;16.75;;;;;;;;;;5017272;28;20026;-92
2024/02/28 11:11:52;;;;;;;35.78;17.08;;;;;;;;;;5017137;28;20013;-91
2024/02/28 11:14:21;;;;;;;35.65;16.13;;;;;;;;;;5000058;28;20018;-91
2024/02/28 11:16:46;;;;;;;30.60;16.80;;;;;;;;;;5011919;28;20028;-91
2024/02/28 11:19:22;;;;;;;29.30;17.60;;;;;;;;;;5001510;28;20109;-90
2024/02/28 11:21:55;;;;;;;29.98;15.35;;;;;;;;;;4994136;28;20030;-91
2024/02/28 11:24:29;;;;;;;26.88;14.13;;;;;;;;;;5014889;28;20066;-84
2024/02/28 11:26:55;;;;;;;27.80;14.80;;;;;;;;;;5009865;28;20034;-84
2024/02/28 11:29:25;;;;;;;29.08;16.95;;;;;;;;;;5009156;28;20104;-84
2024/02/28 11:31:54;;;;;;;29.83;16.55;;;;;;;;;;5011242;28;20033;-84
2024/02/28 11:34:20;;;;;;;29.38;16.05;;;;;;;;;;4993738;28;20022;-84
2024/02/28 11:36:50;;;;;;;26.95;16.15;;;;;;;;;;5010030;28;20541;-84
2024/02/28 11:39:16;;;;;;;28.27;15.52;;;;;;;;;;5006587;28;20117;-84
2024/02/28 11:41:42;;;;;;;30.20;16.23;;;;;;;;;;5008325;28;20030;-84
2024/02/28 11:44:07;;;;;;;25.05;14.25;;;;;;;;;;5008262;28;20025;-84
2024/02/28 11:46:33;;;;;;;25.23;15.18;;;;;;;;;;5011439;28;20091;-84
2024/02/28 11:49:00;;;;;;;32.60;16.90;;;;;;;;;;4987442;28;20408;-84
2024/02/28 11:51:26;;;;;;;28.15;15.25;;;;;;;;;;5010985;28;20061;-84
2024/02/28 11:53:51;;;;;;;31.15;15.85;;;;;;;;;;5010609;28;20474;-83
2024/02/28 11:56:20;;;;;;;30.85;15.00;;;;;;;;;;5011220;28;20437;-83
2024/02/28 11:58:52;;;;;;;28.60;15.68;;;;;;;;;;5008843;28;20084;-84
2024/02/28 12:01:17;;;;;;;28.48;14.90;;;;;;;;;;5010707;28;20114;-83
2024/02/28 12:03:46;;;;;;;26.95;15.77;;;;;;;;;;4991314;28;20108;-83
2024/02/28 12:06:12;;;;;;;31.77;14.93;;;;;;;;;;5004857;28;20912;-83
2024/02/28 12:08:38;;;;;;;27.35;15.38;;;;;;;;;;5010679;28;20022;-84
2024/02/28 12:11:08;;;;;;;27.05;15.63;;;;;;;;;;4996917;28;20435;-84
2024/02/28 12:13:33;;;;;;;26.48;15.43;;;;;;;;;;5009903;28;20022;-84
2024/02/28 12:16:01;;;;;;;31.00;14.68;;;;;;;;;;5005674;28;20033;-84
2024/02/28 12:18:28;;;;;;;24.40;14.02;;;;;;;;;;5010603;28;20484;-84
2024/02/28 12:20:53;;;;;;;28.58;14.45;;;;;;;;;;5007204;28;20034;-84
2024/02/28 12:23:19;;;;;;;23.05;13.57;;;;;;;;;;5007812;28;20372;-85
2024/02/28 12:25:45;;;;;;;23.98;13.88;;;;;;;;;;5007835;28;20124;-83
2024/02/28 12:28:11;;;;;;;26.27;14.13;;;;;;;;;;5006472;28;20030;-84
2024/02/28 12:30:42;;;;;;;29.23;14.60;;;;;;;;;;4988906;28;20117;-84
2024/02/28 12:33:07;;;;;;;26.63;12.95;;;;;;;;;;5005723;28;20647;-82
2024/02/28 12:35:33;;;;;;;24.90;12.77;;;;;;;;;;5003589;28;20076;-92
2024/02/28 12:37:58;;;;;;;19.15;11.98;;;;;;;;;;5006623;28;20417;-91
2024/02/28 12:40:25;;;;;;;19.08;11.10;;;;;;;;;;5002918;28;20097;-92
2024/02/28 12:42:50;;;;;;;22.52;12.30;;;;;;;;;;4996134;28;20033;-92
2024/02/28 12:45:16;;;;;;;24.52;12.68;;;;;;;;;;4989536;28;20080;-91
2024/02/28 12:47:41;;;;;;;23.45;12.98;;;;;;;;;;4996500;28;20101;-91
2024/02/28 12:50:08;;;;;;;19.70;11.70;;;;;;;;;;4991302;28;20108;-93
2024/02/28 12:52:34;;;;;;;23.02;11.85;;;;;;;;;;4984484;28;20038;-92
2024/02/28 12:54:59;;;;;;;21.63;12.02;;;;;;;;;;5009502;28;20079;-90
2024/02/28 12:57:24;;;;;;;22.30;12.45;;;;;;;;;;4996384;28;20034;-91
2024/02/28 12:59:50;;;;;;;21.52;12.18;;;;;;;;;;4996522;28;20033;-93
2024/02/28 13:02:17;;;;;;;20.08;10.98;;;;;;;;;;5006198;28;20391;-91
2024/02/28 13:04:42;;;;;;;21.15;11.20;;;;;;;;;;4997100;28;20037;-89
2024/02/28 13:07:08;;;;;;;20.83;11.65;;;;;;;;;;4993021;28;20045;-90
2024/02/28 13:09:33;;;;;;;22.38;11.25;;;;;;;;;;4994896;28;20728;-89
2024/02/28 13:11:59;;;;;;;24.27;11.63;;;;;;;;;;4994581;28;20369;-89
2024/02/28 13:14:24;;;;;;;21.48;11.48;;;;;;;;;;4993847;28;20031;-90
2024/02/28 13:16:54;;;;;;;21.80;11.38;;;;;;;;;;4997331;28;20046;-90
2024/02/28 13:19:20;;;;;;;20.80;11.73;;;;;;;;;;4988124;28;20068;-91
2024/02/28 13:21:46;;;;;;;21.92;11.25;;;;;;;;;;4989686;28;20026;-90
2024/02/28 13:24:18;;;;;;;22.05;11.65;;;;;;;;;;4993716;28;20092;-91
2024/02/28 13:26:46;;;;;;;17.90;11.65;;;;;;;;;;4998210;28;20026;-93
2024/02/28 13:29:11;;;;;;;22.55;11.60;;;;;;;;;;5015030;28;20030;-93
2024/02/28 13:31:37;;;;;;;19.30;11.65;;;;;;;;;;5001588;28;20081;-91
2024/02/28 13:34:05;;;;;;;20.95;11.80;;;;;;;;;;4996233;28;20022;-92
2024/02/28 13:36:32;;;;;;;20.65;11.90;;;;;;;;;;4992434;28;20034;-91
2024/02/28 13:39:00;;;;;;;23.45;11.95;;;;;;;;;;5000384;28;20033;-93
2024/02/28 13:41:25;;;;;;;25.92;12.43;;;;;;;;;;5004538;28;20029;-92
2024/02/28 13:43:51;;;;;;;21.20;12.88;;;;;;;;;;4999602;28;20033;-92
2024/02/28 13:46:19;;;;;;;20.75;12.65;;;;;;;;;;4982266;28;20042;-92
2024/02/28 13:48:44;;;;;;;19.77;13.23;;;;;;;;;;4991621;28;21296;-91
2024/02/28 13:51:10;;;;;;;24.63;12.95;;;;;;;;;;4997578;28;20036;-93
2024/02/28 13:53:36;;;;;;;21.63;13.30;;;;;;;;;;4997817;28;20488;-93
2024/02/28 13:56:01;;;;;;;21.92;12.90;;;;;;;;;;5008393;28;20076;-92
2024/02/28 13:58:26;;;;;;;22.35;12.50;;;;;;;;;;4999635;28;20018;-90
2024/02/28 14:00:52;;;;;;;22.67;12.88;;;;;;;;;;4998780;28;20095;-90
2024/02/28 14:03:17;;;;;;;23.85;13.18;;;;;;;;;;5020868;28;20033;-90
2024/02/28 14:05:43;;;;;;;21.98;13.70;;;;;;;;;;5006512;28;20032;-93
2024/02/28 14:08:11;;;;;;;20.77;14.25;;;;;;;;;;5006948;28;20022;-93
2024/02/28 14:10:37;;;;;;;23.23;15.15;;;;;;;;;;5004485;28;20034;-92
2024/02/28 14:13:03;;;;;;;22.08;13.98;;;;;;;;;;5017276;28;20518;-93
2024/02/28 14:15:31;;;;;;;23.60;14.57;;;;;;;;;;5013508;28;20041;-92
2024/02/28 14:17:56;;;;;;;24.48;14.82;;;;;;;;;;5031623;28;20041;-93
2024/02/28 14:20:22;;;;;;;24.90;15.25;;;;;;;;;;5019433;28;20038;-92
2024/02/28 14:22:47;;;;;;;22.98;14.50;;;;;;;;;;5012659;28;20057;-90
2024/02/28 14:25:18;;;;;;;21.58;14.82;;;;;;;;;;5016419;28;20388;-91
2024/02/28 14:27:45;;;;;;;21.83;14.27;;;;;;;;;;5014757;28;20022;-91
2024/02/28 14:30:11;;;;;;;22.08;13.98;;;;;;;;;;5018684;28;20021;-93
2024/02/28 14:32:37;;;;;;;22.08;14.77;;;;;;;;;;5012387;28;20484;-94
2024/02/28 14:35:06;;;;;;;22.40;15.27;;;;;;;;;;5002900;28;20030;-93
2024/02/28 14:37:33;;;;;;;27.23;15.10;;;;;;;;;;5009287;28;20036;-92
2024/02/28 14:40:01;;;;;;;23.80;16.20;;;;;;;;;;5019502;28;20022;-93
2024/02/28 14:42:27;;;;;;;29.05;15.70;;;;;;;;;;5014056;28;20022;-91
2024/02/28 14:44:53;;;;;;;29.83;16.45;;;;;;;;;;5001605;28;20026;-93
2024/02/28 14:47:19;;;;;;;29.98;16.92;;;;;;;;;;4999957;28;20103;-91
2024/02/28 14:49:45;;;;;;;22.42;15.38;;;;;;;;;;5002251;28;20030;-92
2024/02/28 14:52:11;;;;;;;25.80;16.25;;;;;;;;;;5007247;28;20108;-93
2024/02/28 14:54:39;;;;;;;24.52;16.30;;;;;;;;;;5014394;28;20109;-84
2024/02/28 14:57:05;;;;;;;25.73;17.52;;;;;;;;;;5010653;28;20060;-84
2024/02/28 14:59:31;;;;;;;27.10;16.30;;;;;;;;;;5011865;28;20069;-83
2024/02/28 15:01:58;;;;;;;28.10;17.77;;;;;;;;;;5004567;28;20112;-84
2024/02/28 15:04:24;;;;;;;34.10;20.80;;;;;;;;;;5007331;28;20033;-84
2024/02/28 15:06:49;;;;;;;24.67;17.23;;;;;;;;;;5001144;28;20542;-84
2024/02/28 15:09:17;;;;;;;24.85;16.23;;;;;;;;;;5009539;28;20029;-84
2024/02/28 15:11:45;;;;;;;22.23;15.32;;;;;;;;;;5008352;28;20539;-84
2024/02/28 15:14:10;;;;;;;22.92;15.65;;;;;;;;;;4994251;28;20040;-84
2024/02/28 15:16:37;;;;;;;28.23;16.63;;;;;;;;;;5009617;28;20034;-83
2024/02/28 15:19:02;;;;;;;28.23;17.45;;;;;;;;;;4993965;28;20550;-83
2024/02/28 15:21:28;;;;;;;24.92;15.77;;;;;;;;;;5009617;28;20121;-83
2024/02/28 15:23:53;;;;;;;23.17;15.18;;;;;;;;;;5003381;28;20443;-83
2024/02/28 15:26:19;;;;;;;23.15;15.30;;;;;;;;;;5008929;28;20024;-84
2024/02/28 15:28:44;;;;;;;22.52;14.25;;;;;;;;;;5002241;28;20034;-84
2024/02/28 15:31:10;;;;;;;20.35;13.40;;;;;;;;;;4989850;28;20113;-84
2024/02/28 15:33:35;;;;;;;22.85;14.02;;;;;;;;;;5008083;28;20025;-83
2024/02/28 15:36:03;;;;;;;20.85;13.10;;;;;;;;;;5009516;28;20391;-84
2024/02/28 15:38:28;;;;;;;19.05;11.70;;;;;;;;;;4993160;28;20030;-84
2024/02/28 15:40:53;;;;;;;19.30;11.25;;;;;;;;;;5007347;28;20101;-84
2024/02/28 15:43:19;;;;;;;20.02;11.20;;;;;;;;;;5007810;28;20045;-83